Time;durP1;ratioP1;P1;durP2;ratioP2;P2;SDS_P1;SDS_P2;PMS_P1;PMS_P2;Temp;Humidity;BMP_temperature;BMP_pressure;BME280_temperature;BME280_humidity;BME280_pressure;Samples;Min_cycle;Max_cycle;Signal;HPM_P1;HPM_P2
2024/03/02 00:00:25;;;;;;;57.30;32.23;;;;;;;9.57;100.00;99836.52;1475473;87;21419;-76
2024/03/02 00:02:51;;;;;;;49.17;29.80;;;;;;;9.58;100.00;99844.77;1470069;87;21507;-75
2024/03/02 00:05:21;;;;;;;55.37;31.13;;;;;;;9.58;100.00;99840.80;1479575;87;21913;-75
2024/03/02 00:07:57;;;;;;;48.30;29.23;;;;;;;9.59;100.00;99846.44;1489085;87;21570;-75
2024/03/02 00:10:29;;;;;;;51.13;30.60;;;;;;;9.60;100.00;99834.88;1498410;86;21686;-75
2024/03/02 00:12:56;;;;;;;57.53;31.00;;;;;;;9.60;100.00;99827.78;1501129;86;21509;-75
2024/03/02 00:15:50;;;;;;;50.53;31.67;;;;;;;9.61;100.00;99825.49;1498864;86;22278;-75
2024/03/02 00:18:27;;;;;;;52.50;30.00;;;;;;;9.62;100.00;99824.50;1498894;86;21316;-75
2024/03/02 00:20:58;;;;;;;51.80;30.57;;;;;;;9.58;100.00;99808.63;1503418;86;21524;-75
2024/03/02 00:23:29;;;;;;;46.28;29.90;;;;;;;9.53;100.00;99806.12;1504129;86;21383;-76
2024/03/02 00:25:56;;;;;;;47.47;29.33;;;;;;;9.53;100.00;99806.95;1488603;86;21442;-75
2024/03/02 00:28:29;;;;;;;46.93;29.90;;;;;;;9.48;100.00;99799.47;1510834;86;21505;-76
2024/03/02 00:31:08;;;;;;;51.77;28.87;;;;;;;9.45;100.00;99803.75;1504087;86;21332;-75
2024/03/02 00:33:44;;;;;;;47.03;29.23;;;;;;;9.46;100.00;99801.94;1505022;86;21324;-75
2024/03/02 00:36:14;;;;;;;45.93;29.77;;;;;;;9.47;100.00;99800.97;1498494;86;21361;-75
2024/03/02 00:38:53;;;;;;;52.40;30.10;;;;;;;9.48;100.00;99809.22;1511466;86;21435;-75
2024/03/02 00:41:30;;;;;;;52.80;31.43;;;;;;;9.46;100.00;99801.44;1509073;86;21309;-76
2024/03/02 00:44:08;;;;;;;60.00;32.83;;;;;;;9.44;100.00;99802.60;1497322;86;21367;-75
2024/03/02 00:46:39;;;;;;;48.17;31.43;;;;;;;9.43;100.00;99796.96;1494921;86;21472;-75
2024/03/02 00:49:26;;;;;;;53.57;30.57;;;;;;;9.41;100.00;99802.42;1508601;86;21413;-75
2024/03/02 00:51:54;;;;;;;58.83;35.53;;;;;;;9.42;100.00;99805.88;1506234;86;22384;-74
2024/03/02 00:54:28;;;;;;;59.53;35.33;;;;;;;9.39;100.00;99805.70;1505875;86;21303;-75
2024/03/02 00:56:58;;;;;;;63.37;38.60;;;;;;;9.39;100.00;99803.55;1508707;86;21399;-74
2024/03/02 00:59:25;;;;;;;55.58;34.48;;;;;;;9.37;100.00;99801.05;1501659;86;22286;-75
2024/03/02 01:01:52;;;;;;;53.03;34.63;;;;;;;9.37;100.00;99797.09;1505797;86;21779;-75
2024/03/02 01:04:18;;;;;;;57.07;34.00;;;;;;;9.40;100.00;99795.45;1500118;86;22197;-75
2024/03/02 01:06:44;;;;;;;51.87;31.30;;;;;;;9.42;100.00;99796.14;1506594;86;21442;-75
2024/03/02 01:09:12;;;;;;;50.80;32.23;;;;;;;9.43;100.00;99787.22;1504627;86;21388;-75
2024/03/02 01:11:38;;;;;;;51.97;31.67;;;;;;;9.42;100.00;99773.69;1506695;86;21649;-75
2024/03/02 01:14:04;;;;;;;49.63;30.73;;;;;;;9.42;100.00;99774.19;1504714;86;21409;-75
2024/03/02 01:16:31;;;;;;;52.10;30.97;;;;;;;9.40;100.00;99772.19;1481183;86;21773;-74
2024/03/02 01:18:57;;;;;;;52.00;33.47;;;;;;;9.40;100.00;99773.01;1506731;86;21374;-76
2024/03/02 01:21:23;;;;;;;54.50;32.80;;;;;;;9.39;100.00;99776.64;1508000;86;21477;-75
2024/03/02 01:23:49;;;;;;;49.77;31.70;;;;;;;9.40;100.00;99779.61;1507165;86;22512;-75
2024/03/02 01:26:15;;;;;;;55.23;30.03;;;;;;;9.42;100.00;99778.15;1504433;86;21433;-75
2024/03/02 01:31:20;;;;;;;47.27;29.00;;;;;;;9.46;100.00;99787.41;1507238;85;25793;-75
2024/03/02 01:33:46;;;;;;;48.07;29.73;;;;;;;9.40;100.00;99786.22;1481844;87;22557;-75
2024/03/02 01:36:12;;;;;;;56.03;31.03;;;;;;;9.38;100.00;99793.48;1457582;88;21419;-75
2024/03/02 01:38:38;;;;;;;51.83;29.07;;;;;;;9.38;100.00;99783.39;1464403;88;21544;-74
2024/03/02 01:41:04;;;;;;;54.40;31.63;;;;;;;9.38;100.00;99788.20;1469086;88;21448;-75
2024/03/02 01:43:30;;;;;;;43.63;26.87;;;;;;;9.35;100.00;99781.06;1473318;87;21374;-75
2024/03/02 01:45:57;;;;;;;43.83;28.10;;;;;;;9.33;100.00;99763.24;1479869;88;21433;-75
2024/03/02 01:48:23;;;;;;;48.33;29.20;;;;;;;9.32;100.00;99758.92;1462779;87;21609;-74
2024/03/02 01:50:49;;;;;;;44.33;27.73;;;;;;;9.30;100.00;99761.73;1463628;88;22298;-75
2024/03/02 01:53:15;;;;;;;44.20;28.20;;;;;;;9.30;100.00;99761.73;1462896;87;21374;-75
2024/03/02 01:55:41;;;;;;;46.47;29.37;;;;;;;9.31;100.00;99771.30;1471816;88;21448;-75
2024/03/02 01:58:08;;;;;;;48.90;28.43;;;;;;;9.32;100.00;99775.62;1472588;88;21626;-75
2024/03/02 02:00:34;;;;;;;44.57;26.43;;;;;;;9.33;100.00;99777.27;1460865;87;21426;-75
2024/03/02 02:03:00;;;;;;;46.93;28.17;;;;;;;9.35;100.00;99770.50;1460725;88;21404;-75
2024/03/02 02:05:26;;;;;;;43.13;26.33;;;;;;;9.37;100.00;99770.68;1456736;88;22342;-75
2024/03/02 02:07:53;;;;;;;47.17;26.43;;;;;;;9.39;100.00;99774.00;1467008;88;21552;-75
2024/03/02 02:10:19;;;;;;;57.63;25.83;;;;;;;9.40;100.00;99774.33;1462950;88;22424;-75
2024/03/02 02:12:45;;;;;;;39.40;25.20;;;;;;;9.39;100.00;99771.36;1457874;88;21471;-75
2024/03/02 02:15:30;;;;;;;42.67;25.50;;;;;;;9.38;100.00;99777.64;1470387;87;22079;-75
2024/03/02 02:17:58;;;;;;;42.10;26.23;;;;;;;9.40;100.00;99776.15;1469902;88;21537;-75
2024/03/02 02:20:25;;;;;;;40.33;25.47;;;;;;;9.40;100.00;99775.65;1463307;87;21471;-74
2024/03/02 02:23:09;;;;;;;35.33;20.93;;;;;;;9.40;100.00;99770.37;1460203;89;21477;-74
2024/03/02 02:25:35;;;;;;;31.50;18.67;;;;;;;9.40;100.00;99774.83;1470146;89;21499;-74
2024/03/02 02:28:02;;;;;;;27.57;16.93;;;;;;;9.42;100.00;99773.69;1461445;89;21470;-73
2024/03/02 02:30:31;;;;;;;23.33;12.80;;;;;;;9.46;100.00;99775.02;1459917;88;22492;-74
2024/03/02 02:32:58;;;;;;;21.27;11.93;;;;;;;9.52;100.00;99778.03;1450431;88;21470;-73
2024/03/02 02:35:24;;;;;;;19.17;10.03;;;;;;;9.59;100.00;99772.47;1464483;88;21433;-74
2024/03/02 02:37:52;;;;;;;16.70;9.40;;;;;;;9.68;100.00;99770.20;1457648;88;21441;-73
2024/03/02 02:40:21;;;;;;;15.40;9.10;;;;;;;9.77;100.00;99763.96;1464872;88;21619;-73
2024/03/02 02:42:47;;;;;;;14.97;7.90;;;;;;;9.86;100.00;99766.14;1459731;88;21479;-75
2024/03/02 02:45:14;;;;;;;13.03;6.63;;;;;;;9.94;100.00;99768.32;1465849;88;21591;-74
2024/03/02 02:47:44;;;;;;;13.13;6.20;;;;;;;10.03;100.00;99767.03;1460337;88;21397;-74
2024/03/02 02:50:12;;;;;;;17.85;7.50;;;;;;;10.10;100.00;99766.75;1449612;89;21640;-74
2024/03/02 02:52:40;;;;;;;12.33;6.57;;;;;;;10.16;100.00;99766.92;1462034;88;21551;-75
2024/03/02 02:55:12;;;;;;;11.77;7.40;;;;;;;10.22;100.00;99764.13;1469606;88;21449;-74
2024/03/02 02:57:41;;;;;;;14.13;7.10;;;;;;;10.27;100.00;99769.80;1457682;88;21552;-74
2024/03/02 03:00:14;;;;;;;18.07;9.67;;;;;;;10.30;100.00;99764.19;1460163;88;21464;-74
2024/03/02 03:02:41;;;;;;;15.67;9.53;;;;;;;10.31;100.00;99761.86;1453874;89;22403;-74
2024/03/02 03:05:13;;;;;;;22.23;7.60;;;;;;;10.28;100.00;99766.16;1453253;88;21477;-73
2024/03/02 03:07:41;;;;;;;20.60;12.37;;;;;;;10.24;100.00;99770.56;1471742;88;21374;-74
2024/03/02 03:10:08;;;;;;;17.40;9.10;;;;;;;10.21;100.00;99770.89;1460989;88;21464;-73
2024/03/02 03:12:35;;;;;;;21.13;13.27;;;;;;;10.18;100.00;99769.39;1455140;89;21426;-74
2024/03/02 03:15:02;;;;;;;25.30;14.20;;;;;;;10.15;100.00;99768.39;1461319;89;22395;-74
2024/03/02 03:17:29;;;;;;;24.17;15.43;;;;;;;10.11;100.00;99772.36;1466636;88;21420;-74
2024/03/02 03:19:55;;;;;;;25.80;17.57;;;;;;;10.05;100.00;99775.64;1462766;88;21470;-73
2024/03/02 03:22:21;;;;;;;38.70;21.40;;;;;;;9.98;100.00;99779.40;1463740;88;22507;-73
2024/03/02 03:24:47;;;;;;;40.53;21.20;;;;;;;9.91;100.00;99772.61;1461690;89;21418;-73
2024/03/02 03:27:13;;;;;;;36.83;21.17;;;;;;;9.85;100.00;99782.50;1465387;88;21493;-74
2024/03/02 03:29:39;;;;;;;38.27;21.30;;;;;;;9.80;100.00;99773.39;1462678;88;21673;-74
2024/03/02 03:32:06;;;;;;;37.00;20.37;;;;;;;9.77;100.00;99773.20;1461919;88;21515;-73
2024/03/02 03:34:34;;;;;;;28.37;17.63;;;;;;;9.75;100.00;99773.84;1460781;88;21345;-74
2024/03/02 03:37:00;;;;;;;27.30;19.20;;;;;;;9.76;100.00;99779.98;1465742;89;21397;-74
2024/03/02 03:39:26;;;;;;;29.90;18.97;;;;;;;9.77;100.00;99781.63;1460762;89;21404;-74
2024/03/02 03:41:52;;;;;;;31.87;20.40;;;;;;;9.74;100.00;99769.56;1461606;88;21470;-75
2024/03/02 03:44:19;;;;;;;39.17;20.70;;;;;;;9.72;100.00;99771.53;1462416;88;21493;-74
2024/03/02 03:46:45;;;;;;;34.67;20.60;;;;;;;9.71;100.00;99768.56;1466873;89;21426;-74
2024/03/02 03:49:11;;;;;;;28.07;18.13;;;;;;;9.70;100.00;99773.52;1466808;88;21478;-74
2024/03/02 03:51:37;;;;;;;36.50;21.40;;;;;;;9.70;100.00;99769.55;1459629;89;21455;-74
2024/03/02 03:54:03;;;;;;;25.87;16.27;;;;;;;9.70;100.00;99776.98;1452180;89;21470;-73
2024/03/02 03:56:29;;;;;;;22.47;11.90;;;;;;;9.72;100.00;99776.81;1464205;89;21463;-74
2024/03/02 03:58:55;;;;;;;21.83;9.43;;;;;;;9.73;100.00;99773.70;1460240;88;21463;-73
2024/03/02 04:01:22;;;;;;;18.10;8.83;;;;;;;9.76;100.00;99767.60;1461414;88;21441;-74
2024/03/02 04:03:49;;;;;;;14.83;7.10;;;;;;;9.81;100.00;99775.03;1472985;89;21478;-73
2024/03/02 04:06:17;;;;;;;14.93;6.93;;;;;;;9.86;100.00;99769.61;1465128;89;21560;-73
2024/03/02 04:08:43;;;;;;;17.10;7.60;;;;;;;9.97;100.00;99775.11;1461412;89;22623;-74
2024/03/02 04:11:09;;;;;;;10.30;6.90;;;;;;;10.06;100.00;99774.64;1462379;89;21522;-74
2024/03/02 04:13:35;;;;;;;10.47;7.13;;;;;;;10.12;100.00;99768.21;1465885;89;21360;-74
2024/03/02 04:16:01;;;;;;;12.27;7.27;;;;;;;10.20;100.00;99775.85;1466996;88;21463;-74
2024/03/02 04:18:27;;;;;;;15.03;8.43;;;;;;;10.26;100.00;99776.03;1457394;89;22358;-73
2024/03/02 04:20:53;;;;;;;33.30;9.47;;;;;;;10.33;100.00;99777.08;1464797;89;21523;-73
2024/03/02 04:23:19;;;;;;;10.40;6.93;;;;;;;10.38;100.00;99773.94;1459647;89;21478;-73
2024/03/02 04:25:45;;;;;;;14.23;8.13;;;;;;;10.44;100.00;99776.42;1460120;89;21375;-74
2024/03/02 04:28:12;;;;;;;15.67;6.83;;;;;;;10.48;100.00;99769.84;1465548;88;21963;-73
2024/03/02 04:30:38;;;;;;;17.70;7.47;;;;;;;10.52;100.00;99771.97;1466270;88;21515;-73
2024/03/02 04:33:07;;;;;;;13.90;7.17;;;;;;;10.56;100.00;99768.03;1449229;89;21560;-73
2024/03/02 04:35:33;;;;;;;16.77;7.27;;;;;;;10.59;100.00;99775.64;1460202;89;21568;-73
2024/03/02 04:37:59;;;;;;;17.67;6.70;;;;;;;10.61;100.00;99779.43;1450008;89;21390;-73
2024/03/02 04:40:25;;;;;;;18.67;7.70;;;;;;;10.62;100.00;99781.11;1460002;88;21471;-74
2024/03/02 04:42:51;;;;;;;12.60;7.70;;;;;;;10.63;100.00;99785.89;1457763;88;21456;-73
2024/03/02 04:45:17;;;;;;;14.87;6.87;;;;;;;10.63;100.00;99791.19;1465145;88;21367;-73
2024/03/02 04:47:43;;;;;;;15.57;7.67;;;;;;;10.62;100.00;99795.66;1471707;89;21515;-73
2024/03/02 04:50:10;;;;;;;17.50;8.33;;;;;;;10.61;100.00;99799.28;1459096;89;21493;-74
2024/03/02 04:52:36;;;;;;;13.57;7.47;;;;;;;10.60;100.00;99802.42;1457966;88;21493;-74
2024/03/02 04:55:17;;;;;;;16.43;7.63;;;;;;;10.60;100.00;99801.09;1463683;88;21508;-74
2024/03/02 04:57:38;;;;;;;16.77;8.47;;;;;;;10.60;100.00;99794.98;1463965;88;21559;-75
2024/03/02 05:00:07;;;;;;;19.30;8.13;;;;;;;10.60;100.00;99803.75;1450636;89;22447;-73
2024/03/02 05:02:33;;;;;;;16.10;8.23;;;;;;;10.60;100.00;99806.89;1456719;88;22322;-73
2024/03/02 05:04:59;;;;;;;21.60;8.67;;;;;;;10.60;100.00;99806.89;1460411;88;21382;-74
2024/03/02 05:07:25;;;;;;;15.00;8.23;;;;;;;10.60;100.00;99805.57;1459567;89;21535;-77
2024/03/02 05:09:51;;;;;;;15.77;8.30;;;;;;;10.60;100.00;99816.16;1460711;89;21485;-77
2024/03/02 05:15:03;;;;;;;11.10;7.30;;;;;;;10.61;100.00;99815.16;1472789;88;21500;-77
2024/03/02 05:17:29;;;;;;;22.40;9.00;;;;;;;10.61;100.00;99811.18;1458959;88;21596;-76
2024/03/02 05:19:56;;;;;;;15.73;8.10;;;;;;;10.61;100.00;99808.53;1466706;89;22298;-78
2024/03/02 05:22:22;;;;;;;21.77;9.53;;;;;;;10.60;100.00;99810.86;1469227;89;21582;-77
2024/03/02 05:24:48;;;;;;;21.67;8.33;;;;;;;10.60;100.00;99804.25;1461688;88;21979;-77
2024/03/02 05:27:15;;;;;;;14.90;8.23;;;;;;;10.58;100.00;99808.36;1463121;88;22326;-77
2024/03/02 05:29:41;;;;;;;20.93;8.77;;;;;;;10.56;100.00;99802.93;1464438;88;21662;-77
2024/03/02 05:32:07;;;;;;;16.40;8.30;;;;;;;10.55;100.00;99809.19;1456905;89;21433;-77
2024/03/02 05:34:35;;;;;;;16.50;8.77;;;;;;;10.52;100.00;99812.16;1471925;89;21570;-77
2024/03/02 05:37:02;;;;;;;15.60;8.50;;;;;;;10.46;100.00;99810.17;1464633;88;22456;-77
2024/03/02 05:39:28;;;;;;;25.80;9.93;;;;;;;10.39;100.00;99821.91;1457713;88;21404;-76
2024/03/02 05:41:54;;;;;;;15.87;9.67;;;;;;;10.34;100.00;99830.31;1456900;89;21456;-77
2024/03/02 05:44:20;;;;;;;18.43;9.80;;;;;;;10.30;100.00;99838.24;1463103;88;21412;-78
2024/03/02 05:46:46;;;;;;;19.60;10.07;;;;;;;10.28;100.00;99832.27;1461211;88;22417;-74
2024/03/02 05:49:12;;;;;;;25.27;11.63;;;;;;;10.27;100.00;99840.36;1461154;89;21500;-73
2024/03/02 05:51:38;;;;;;;16.57;9.30;;;;;;;10.25;100.00;99845.79;1443523;89;21478;-74
2024/03/02 05:54:05;;;;;;;19.67;11.17;;;;;;;10.26;100.00;99838.67;1458839;89;21426;-74
2024/03/02 05:56:31;;;;;;;17.10;10.63;;;;;;;10.29;100.00;99847.64;1463147;88;21426;-74
2024/03/02 05:59:12;;;;;;;20.23;11.27;;;;;;;10.32;100.00;99849.97;1465598;89;21530;-74
2024/03/02 06:01:50;;;;;;;18.60;11.80;;;;;;;10.35;100.00;99853.61;1461594;89;21449;-75
2024/03/02 06:04:17;;;;;;;23.40;11.50;;;;;;;10.38;100.00;99854.61;1463309;88;21529;-75
2024/03/02 06:06:43;;;;;;;22.67;11.27;;;;;;;10.41;100.00;99850.83;1472542;88;21449;-75
2024/03/02 06:09:12;;;;;;;26.63;12.60;;;;;;;10.41;100.00;99853.47;1464892;88;21441;-74
2024/03/02 06:11:40;;;;;;;30.33;12.40;;;;;;;10.42;100.00;99844.56;1475047;89;21498;-75
2024/03/02 06:14:08;;;;;;;19.67;10.63;;;;;;;10.44;100.00;99855.79;1465510;88;21662;-75
2024/03/02 06:16:35;;;;;;;22.63;11.93;;;;;;;10.44;100.00;99855.29;1457449;88;21526;-75
2024/03/02 06:19:01;;;;;;;22.97;11.47;;;;;;;10.46;100.00;99848.53;1457746;89;21578;-75
2024/03/02 06:21:28;;;;;;;24.97;14.30;;;;;;;10.48;100.00;99853.17;1464530;88;22506;-75
2024/03/02 06:23:54;;;;;;;26.17;14.07;;;;;;;10.50;100.00;99855.14;1463922;89;21476;-75
2024/03/02 06:26:21;;;;;;;30.17;14.87;;;;;;;10.51;100.00;99856.82;1463221;89;21493;-75
2024/03/02 06:28:47;;;;;;;29.00;14.13;;;;;;;10.53;100.00;99866.72;1458422;89;22283;-75
2024/03/02 06:31:13;;;;;;;27.73;13.40;;;;;;;10.54;100.00;99861.79;1465619;89;22111;-75
2024/03/02 06:33:41;;;;;;;28.67;14.73;;;;;;;10.54;100.00;99861.79;1463263;88;21655;-74
2024/03/02 06:36:11;;;;;;;23.50;13.10;;;;;;;10.57;100.00;99864.94;1470100;88;21456;-75
2024/03/02 06:38:39;;;;;;;25.57;14.60;;;;;;;10.59;100.00;99871.41;1459026;89;21500;-75
2024/03/02 06:41:05;;;;;;;22.83;13.87;;;;;;;10.60;100.00;99864.61;1464775;88;21397;-75
2024/03/02 06:43:31;;;;;;;27.33;14.33;;;;;;;10.64;100.00;99864.28;1460054;88;21530;-75
2024/03/02 06:45:57;;;;;;;25.77;16.50;;;;;;;10.68;100.00;99869.60;1456482;89;21441;-75
2024/03/02 06:48:24;;;;;;;28.70;14.83;;;;;;;10.71;100.00;99868.78;1464537;88;21448;-74
2024/03/02 06:50:52;;;;;;;28.10;16.00;;;;;;;10.75;100.00;99875.39;1461724;88;21523;-75
2024/03/02 06:53:19;;;;;;;27.10;15.50;;;;;;;10.80;100.00;99878.39;1468860;89;21442;-75
2024/03/02 06:55:46;;;;;;;28.40;16.13;;;;;;;10.87;100.00;99889.64;1458439;89;21368;-75
2024/03/02 06:58:15;;;;;;;27.50;16.47;;;;;;;10.91;100.00;99897.11;1462056;88;21463;-74
2024/03/02 07:00:42;;;;;;;31.30;16.23;;;;;;;10.95;100.00;99904.23;1465632;88;21433;-74
2024/03/02 07:03:10;;;;;;;29.67;17.67;;;;;;;10.99;100.00;99905.55;1464319;89;21416;-73
2024/03/02 07:05:36;;;;;;;25.87;14.07;;;;;;;11.03;100.00;99905.57;1460566;89;22366;-75
2024/03/02 07:08:03;;;;;;;30.27;19.00;;;;;;;11.06;100.00;99898.12;1465135;88;21382;-75
2024/03/02 07:10:29;;;;;;;35.83;19.57;;;;;;;11.11;100.00;99901.61;1460956;89;21537;-75
2024/03/02 07:12:55;;;;;;;42.33;23.27;;;;;;;11.14;100.00;99906.58;1462917;89;21523;-75
2024/03/02 07:15:37;;;;;;;39.00;23.20;;;;;;;11.16;100.00;99903.25;1470048;88;21610;-75
2024/03/02 07:17:53;;;;;;;42.20;19.17;;;;;;;11.19;100.00;99906.92;1458988;89;21998;-75
2024/03/02 07:20:19;;;;;;;33.73;20.80;;;;;;;11.24;100.00;99914.36;1455018;89;21493;-75
2024/03/02 07:22:45;;;;;;;32.20;18.87;;;;;;;11.26;100.00;99915.03;1462425;89;21389;-75
2024/03/02 07:25:12;;;;;;;29.00;16.87;;;;;;;11.29;100.00;99921.33;1447265;89;21486;-75
2024/03/02 07:27:39;;;;;;;27.73;18.63;;;;;;;11.35;100.00;99926.47;1465971;89;21464;-75
2024/03/02 07:30:07;;;;;;;30.37;18.57;;;;;;;11.37;100.00;99920.01;1468955;88;21597;-75
2024/03/02 07:32:33;;;;;;;30.10;18.90;;;;;;;11.39;100.00;99926.45;1463294;88;21715;-75
2024/03/02 07:35:01;;;;;;;26.60;17.13;;;;;;;11.42;100.00;99930.09;1462005;88;21537;-75
2024/03/02 07:37:27;;;;;;;31.23;17.97;;;;;;;11.45;100.00;99931.09;1454805;88;21610;-75
2024/03/02 07:39:54;;;;;;;29.73;17.30;;;;;;;11.46;100.00;99936.23;1457170;89;21699;-76
2024/03/02 07:42:20;;;;;;;67.43;20.13;;;;;;;11.48;100.00;99941.38;1463659;89;21486;-75
2024/03/02 07:44:48;;;;;;;36.37;18.03;;;;;;;11.49;100.00;99948.33;1462489;89;21529;-74
2024/03/02 07:47:16;;;;;;;30.35;17.57;;;;;;;11.52;100.00;99946.67;1415448;92;21687;-75
2024/03/02 07:49:44;;;;;;;28.10;17.17;;;;;;;11.55;100.00;99945.52;1410005;92;21570;-75
2024/03/02 07:52:10;;;;;;;23.83;15.77;;;;;;;11.58;100.00;99949.98;1446589;90;21355;-75
2024/03/02 07:54:36;;;;;;;33.37;16.13;;;;;;;11.62;100.00;99947.32;1436505;91;21562;-75
2024/03/02 07:57:03;;;;;;;28.30;13.77;;;;;;;11.64;100.00;99946.66;1434303;91;22053;-74
2024/03/02 07:59:29;;;;;;;24.23;15.13;;;;;;;11.66;100.00;99943.86;1439344;91;21578;-75
2024/03/02 08:01:55;;;;;;;30.13;15.47;;;;;;;11.68;100.00;99951.12;1426783;91;21510;-75
2024/03/02 08:04:21;;;;;;;27.60;15.63;;;;;;;11.64;100.00;99950.64;1427526;91;21414;-75
2024/03/02 08:06:47;;;;;;;30.20;15.60;;;;;;;11.70;100.00;99959.25;1429965;92;22314;-74
2024/03/02 08:09:14;;;;;;;20.40;15.47;;;;;;;11.73;100.00;99960.23;1443122;91;21488;-75
2024/03/02 08:11:41;;;;;;;24.87;14.80;;;;;;;11.78;100.00;99957.10;1418930;92;21480;-75
2024/03/02 08:14:10;;;;;;;;;;;;;;;11.80;100.00;99959.09;1433293;91;22346;-75
2024/03/02 08:16:37;;;;;;;32.53;15.50;;;;;;;11.87;100.00;99956.63;1420626;92;20399;-74
2024/03/02 08:19:03;;;;;;;27.07;16.37;;;;;;;11.93;100.00;99952.80;1433731;91;21496;-75
2024/03/02 08:21:30;;;;;;;23.77;16.40;;;;;;;11.97;100.00;99953.31;1424111;92;21415;-75
2024/03/02 08:23:58;;;;;;;24.13;15.83;;;;;;;11.97;100.00;99950.66;1437070;91;21518;-74
2024/03/02 08:26:24;;;;;;;31.83;18.90;;;;;;;12.01;100.00;99953.30;1424097;91;21421;-74
2024/03/02 08:28:50;;;;;;;27.10;16.90;;;;;;;12.04;100.00;99950.30;1414662;92;21504;-75
2024/03/02 08:31:16;;;;;;;34.87;18.47;;;;;;;12.08;100.00;99947.63;1420802;91;21481;-76
2024/03/02 08:33:42;;;;;;;105.20;24.23;;;;;;;12.09;100.00;99949.31;1414112;91;21517;-74
2024/03/02 08:36:09;;;;;;;48.97;18.67;;;;;;;12.12;100.00;99953.45;1430284;91;21567;-75
2024/03/02 08:38:35;;;;;;;27.90;17.40;;;;;;;12.11;100.00;99949.98;1455033;90;22131;-75
2024/03/02 08:41:03;;;;;;;29.77;19.10;;;;;;;12.13;100.00;99950.61;1450504;90;22587;-75
2024/03/02 08:43:29;;;;;;;33.50;20.73;;;;;;;12.14;100.00;99948.31;1450813;90;21537;-75
2024/03/02 08:45:56;;;;;;;29.47;17.97;;;;;;;12.18;100.00;99948.79;1456255;90;23098;-75
2024/03/02 08:48:22;;;;;;;29.50;18.00;;;;;;;12.22;100.00;99947.95;1449260;89;21611;-75
2024/03/02 08:50:48;;;;;;;23.93;16.70;;;;;;;12.30;100.00;99952.73;1450565;89;21455;-75
2024/03/02 08:53:18;;;;;;;25.87;14.83;;;;;;;12.33;100.00;99952.39;1449513;89;22417;-75
2024/03/02 08:55:42;;;;;;;27.43;16.47;;;;;;;12.40;100.00;99952.55;1456042;90;22937;-75
2024/03/02 08:58:08;;;;;;;23.83;16.63;;;;;;;12.47;100.00;99945.55;1450731;90;21564;-75
2024/03/02 09:00:37;;;;;;;33.30;19.07;;;;;;;12.56;100.00;99947.16;1447834;89;21516;-75
2024/03/02 09:03:04;;;;;;;28.43;18.43;;;;;;;12.65;100.00;99946.13;1448186;90;21427;-75
2024/03/02 09:05:32;;;;;;;32.70;18.83;;;;;;;12.74;100.00;99955.39;1453771;89;21975;-75
2024/03/02 09:07:58;;;;;;;29.90;19.17;;;;;;;12.90;100.00;99957.97;1458176;89;21471;-75
2024/03/02 09:10:24;;;;;;;30.87;19.10;;;;;;;13.02;100.00;99951.26;1449768;89;21641;-74
2024/03/02 09:12:50;;;;;;;33.00;18.60;;;;;;;13.13;100.00;99955.35;1452155;89;22373;-75
2024/03/02 09:15:17;;;;;;;30.73;19.13;;;;;;;13.22;100.00;99956.13;1459804;89;21978;-76
2024/03/02 09:17:43;;;;;;;28.37;19.33;;;;;;;13.32;100.00;99954.08;1448678;89;21390;-75
2024/03/02 09:20:11;;;;;;;30.83;18.37;;;;;;;13.44;100.00;99953.19;1452091;89;21442;-75
2024/03/02 09:22:37;;;;;;;28.80;18.80;;;;;;;13.65;100.00;99956.51;1384035;89;21434;-75
2024/03/02 09:25:04;;;;;;;36.67;19.23;;;;;;;13.78;100.00;99958.04;1535410;90;22220;-75
2024/03/02 09:27:30;;;;;;;30.43;18.03;;;;;;;13.96;100.00;99961.22;1378886;90;22226;-75
2024/03/02 09:29:56;;;;;;;28.13;18.23;;;;;;;14.04;100.00;99958.14;1379877;89;22368;-75
2024/03/02 09:32:27;;;;;;;27.00;16.87;;;;;;;14.07;100.00;99967.09;1385328;89;21597;-75
2024/03/02 09:34:53;;;;;;;25.53;16.80;;;;;;;13.99;100.00;99959.52;1535394;90;21287;-75
2024/03/02 09:37:21;;;;;;;22.83;15.70;;;;;;;13.85;100.00;99960.31;1380045;90;22361;-77
2024/03/02 09:39:47;;;;;;;30.53;17.20;;;;;;;13.83;100.00;99956.18;1377168;89;21427;-75
2024/03/02 09:42:13;;;;;;;26.50;17.37;;;;;;;13.82;100.00;99962.52;1379762;89;21501;-75
2024/03/02 09:44:40;;;;;;;23.77;16.03;;;;;;;13.76;100.00;99966.21;1379254;89;21324;-74
2024/03/02 09:47:07;;;;;;;26.00;17.13;;;;;;;13.75;100.00;99967.70;1385222;90;21413;-75
2024/03/02 09:49:34;;;;;;;33.03;17.57;;;;;;;13.83;100.00;99967.64;1524608;90;21495;-75
2024/03/02 09:52:02;;;;;;;21.60;15.47;;;;;;;13.96;100.00;99969.20;1372077;90;22278;-75
2024/03/02 09:54:29;;;;;;;24.17;15.30;;;;;;;14.09;100.00;99972.55;1377418;90;21354;-75
2024/03/02 09:56:55;;;;;;;23.60;16.10;;;;;;;14.15;100.00;99967.01;1385946;90;22348;-75
2024/03/02 09:59:21;;;;;;;23.27;17.33;;;;;;;14.14;100.00;99966.19;1379737;89;21331;-75
2024/03/02 10:02:00;;;;;;;27.53;17.17;;;;;;;14.25;100.00;99958.27;1420802;89;21464;-75
2024/03/02 10:04:28;;;;;;;19.37;14.73;;;;;;;14.42;100.00;99954.92;1451891;90;21515;-75
2024/03/02 10:07:16;;;;;;;25.90;16.53;;;;;;;14.93;100.00;99959.47;1450409;89;21427;-75
2024/03/02 10:09:45;;;;;;;23.77;15.57;;;;;;;15.10;100.00;99961.74;1458288;89;22355;-75
2024/03/02 10:12:15;;;;;;;25.40;15.87;;;;;;;15.01;100.00;99953.52;1455730;89;22521;-75
2024/03/02 10:14:42;;;;;;;24.90;14.75;;;;;;;15.02;100.00;99949.04;1375623;89;21324;-75
2024/03/02 10:17:12;;;;;;;23.50;16.07;;;;;;;14.81;100.00;99950.63;1379061;90;22213;-75
2024/03/02 10:19:39;;;;;;;27.82;15.35;;;;;;;14.71;100.00;99958.09;1532799;89;21302;-75
2024/03/02 10:22:08;;;;;;;19.77;14.50;;;;;;;14.83;100.00;99950.45;1384505;90;21543;-74
2024/03/02 10:24:44;;;;;;;29.47;16.27;;;;;;;14.77;100.00;99955.20;1535302;89;21391;-75
2024/03/02 10:27:18;;;;;;;22.90;16.27;;;;;;;14.67;100.00;99948.80;1535474;89;21561;-75
2024/03/02 10:29:48;;;;;;;29.07;18.20;;;;;;;14.63;100.00;99951.53;1401010;90;22322;-75
2024/03/02 10:32:16;;;;;;;26.20;15.58;;;;;;;14.55;100.00;99951.62;1450179;90;21842;-74
2024/03/02 10:34:44;;;;;;;19.80;15.87;;;;;;;14.54;100.00;99954.80;1454513;89;21522;-75
2024/03/02 10:37:12;;;;;;;28.50;16.17;;;;;;;14.56;100.00;99957.30;1359500;91;22146;-75
2024/03/02 10:39:42;;;;;;;22.07;15.27;;;;;;;14.55;100.00;99950.30;1386950;89;21487;-75
2024/03/02 10:42:09;;;;;;;22.62;16.48;;;;;;;14.51;100.00;99955.14;1383637;89;22341;-75
2024/03/02 10:44:35;;;;;;;22.70;15.37;;;;;;;14.45;100.00;99952.71;1386838;88;21360;-75
2024/03/02 10:47:03;;;;;;;26.70;15.57;;;;;;;14.49;100.00;99952.34;1387921;88;21475;-75
2024/03/02 10:49:31;;;;;;;20.80;13.73;;;;;;;14.52;100.00;99953.33;1385719;89;21485;-74
2024/03/02 10:51:59;;;;;;;25.87;14.03;;;;;;;14.55;100.00;99950.30;1385777;89;21567;-76
2024/03/02 10:54:35;;;;;;;20.03;13.93;;;;;;;14.61;100.00;99950.88;1386412;89;21508;-75
2024/03/02 10:56:59;;;;;;;20.67;13.97;;;;;;;14.59;100.00;99952.93;1545514;88;21360;-75
2024/03/02 10:59:35;;;;;;;20.03;12.20;;;;;;;14.70;100.00;99956.42;1388023;89;22218;-74
2024/03/02 11:02:06;;;;;;;27.00;14.30;;;;;;;14.84;100.00;99951.58;1474207;88;21655;-75
2024/03/02 11:04:34;;;;;;;22.37;15.10;;;;;;;15.03;100.00;99948.02;1460320;88;22380;-75
2024/03/02 11:07:06;;;;;;;22.33;15.50;;;;;;;15.12;100.00;99946.88;1465437;89;22286;-73
2024/03/02 11:09:41;;;;;;;22.30;15.87;;;;;;;15.10;100.00;99952.89;1463981;88;22344;-73
2024/03/02 11:12:21;;;;;;;20.40;14.10;;;;;;;15.07;100.00;99953.27;1462957;88;21507;-72
2024/03/02 11:14:48;;;;;;;;;;;;;;;15.11;100.00;99941.24;1473011;89;21559;-73
2024/03/02 11:17:15;;;;;;;23.13;10.67;;;;;;;15.12;100.00;99938.88;1461447;89;20357;-74
2024/03/02 11:19:42;;;;;;;14.23;8.87;;;;;;;15.12;100.00;99942.88;1455837;89;21515;-74
2024/03/02 11:22:10;;;;;;;12.10;9.17;;;;;;;15.18;100.00;99940.79;1465085;88;21478;-74